Time;durP1;ratioP1;P1;durP2;ratioP2;P2;SDS_P1;SDS_P2;PMS_P1;PMS_P2;Temp;Humidity;BMP_temperature;BMP_pressure;BME280_temperature;BME280_humidity;BME280_pressure;Samples;Min_cycle;Max_cycle;Signal;HPM_P1;HPM_P2
2022/12/31 00:01:37;;;;;;;1.23;1.08;;;10.40;99.90;;;;;;5092057;28;20388;-37
2022/12/31 00:04:03;;;;;;;0.70;0.70;;;10.40;99.90;;;;;;5095881;28;20745;-37
2022/12/31 00:06:34;;;;;;;1.35;1.00;;;10.40;99.90;;;;;;5086684;28;20034;-37
2022/12/31 00:09:03;;;;;;;0.73;0.73;;;10.40;99.90;;;;;;5103212;28;20028;-36
2022/12/31 00:11:30;;;;;;;0.82;0.82;;;10.40;99.90;;;;;;5095185;28;20124;-36
2022/12/31 00:13:57;;;;;;;0.70;0.70;;;10.50;99.90;;;;;;5092607;28;20043;-37
2022/12/31 00:16:25;;;;;;;0.85;0.80;;;10.50;99.90;;;;;;5088667;28;20024;-36
2022/12/31 00:18:53;;;;;;;0.95;0.95;;;10.50;99.90;;;;;;5098881;28;20028;-36
2022/12/31 00:21:21;;;;;;;0.98;0.98;;;10.50;99.90;;;;;;5091351;28;20581;-34
2022/12/31 00:23:47;;;;;;;0.85;0.85;;;10.60;99.90;;;;;;5094433;28;20397;-37
2022/12/31 00:26:23;;;;;;;1.02;1.02;;;10.60;99.90;;;;;;5090802;28;20135;-34
2022/12/31 00:28:49;;;;;;;0.70;0.70;;;10.70;99.90;;;;;;5095838;28;20047;-36
2022/12/31 00:31:18;;;;;;;0.90;0.80;;;10.70;99.90;;;;;;5087851;28;20028;-36
2022/12/31 00:33:45;;;;;;;1.75;0.60;;;10.80;99.90;;;;;;5090498;28;20042;-36
2022/12/31 00:36:16;;;;;;;1.05;0.98;;;10.80;99.90;;;;;;5087095;28;20039;-35
2022/12/31 00:38:45;;;;;;;0.55;0.55;;;10.80;99.90;;;;;;5101387;28;20046;-37
2022/12/31 00:41:12;;;;;;;1.25;0.80;;;11.00;99.90;;;;;;5099751;28;20027;-36
2022/12/31 00:43:39;;;;;;;0.68;0.68;;;11.00;99.90;;;;;;5093838;28;20481;-36
2022/12/31 00:46:06;;;;;;;0.65;0.65;;;11.00;99.90;;;;;;5082802;28;20431;-35
2022/12/31 00:48:33;;;;;;;0.82;0.82;;;11.10;99.90;;;;;;5087584;28;20370;-36
2022/12/31 00:50:59;;;;;;;0.68;0.68;;;11.10;99.90;;;;;;5082261;28;20093;-36
2022/12/31 00:53:26;;;;;;;0.70;0.70;;;11.10;99.90;;;;;;5091298;28;20051;-36
2022/12/31 00:55:58;;;;;;;0.60;0.60;;;11.10;99.90;;;;;;5090689;28;20035;-35
2022/12/31 00:58:24;;;;;;;2.20;0.68;;;11.10;99.90;;;;;;5095848;28;20031;-36
2022/12/31 01:00:49;;;;;;;0.90;0.90;;;11.10;99.90;;;;;;5091147;28;20032;-37
2022/12/31 01:03:15;;;;;;;0.63;0.63;;;11.10;99.90;;;;;;5096485;28;20020;-38
2022/12/31 01:05:40;;;;;;;1.30;0.70;;;11.10;99.90;;;;;;5100936;28;20629;-36
2022/12/31 01:08:06;;;;;;;0.60;0.60;;;11.10;99.90;;;;;;5098208;28;20102;-36
2022/12/31 01:13:17;;;;;;;0.60;0.60;;;11.00;99.90;;;;;;5100862;28;20061;-36
2022/12/31 01:15:42;;;;;;;0.65;0.65;;;11.10;99.90;;;;;;5071113;28;20485;-38
2022/12/31 01:18:08;;;;;;;0.70;0.70;;;11.10;99.90;;;;;;5076264;28;20086;-37
2022/12/31 01:20:36;;;;;;;0.93;0.65;;;11.20;99.90;;;;;;5070157;28;20045;-37
2022/12/31 01:23:02;;;;;;;1.02;0.93;;;11.10;99.90;;;;;;5073277;28;20504;-37
2022/12/31 01:25:28;;;;;;;0.85;0.85;;;11.10;99.90;;;;;;5075209;28;20028;-35
2022/12/31 01:27:53;;;;;;;0.80;0.80;;;11.00;99.90;;;;;;5075993;28;20032;-36
2022/12/31 01:30:19;;;;;;;0.75;0.73;;;11.00;99.90;;;;;;5078061;28;20407;-38
2022/12/31 01:32:45;;;;;;;1.45;0.65;;;11.00;99.90;;;;;;5075338;28;20615;-35
2022/12/31 01:35:10;;;;;;;0.63;0.63;;;11.00;99.90;;;;;;5074258;28;20428;-36
2022/12/31 01:37:37;;;;;;;2.05;0.70;;;10.90;99.90;;;;;;5077872;28;20097;-37
2022/12/31 01:40:04;;;;;;;0.60;0.60;;;10.90;99.90;;;;;;5075200;28;20063;-38
2022/12/31 01:42:29;;;;;;;0.93;0.70;;;10.90;99.90;;;;;;5090591;28;20038;-33
2022/12/31 01:44:55;;;;;;;0.70;0.70;;;10.90;99.90;;;;;;5056512;28;20445;-37
2022/12/31 01:47:35;;;;;;;0.73;0.73;;;10.90;99.90;;;;;;5056216;28;20039;-35
2022/12/31 01:50:27;;;;;;;0.90;0.82;;;10.90;99.90;;;;;;5050919;28;20058;-35
2022/12/31 01:52:58;;;;;;;0.70;0.70;;;10.80;99.90;;;;;;5054336;28;20044;-34
2022/12/31 01:55:29;;;;;;;1.30;0.88;;;10.80;99.90;;;;;;5055142;28;20150;-34
2022/12/31 01:58:05;;;;;;;0.75;0.75;;;10.80;99.90;;;;;;5050306;28;20097;-37
2022/12/31 02:00:31;;;;;;;0.93;0.93;;;10.80;99.90;;;;;;5055770;28;20039;-35
2022/12/31 02:02:57;;;;;;;0.55;0.55;;;10.90;99.90;;;;;;5057830;28;20728;-35
2022/12/31 02:05:43;;;;;;;0.50;0.50;;;10.90;99.90;;;;;;5056067;28;20039;-36
2022/12/31 02:08:10;;;;;;;0.70;0.70;;;10.90;99.90;;;;;;5056124;28;20660;-36
2022/12/31 02:10:36;;;;;;;0.82;0.82;;;11.00;99.90;;;;;;5049849;28;20086;-33
2022/12/31 02:13:02;;;;;;;0.55;0.55;;;11.10;99.90;;;;;;5052327;28;20047;-33
2022/12/31 02:15:59;;;;;;;0.63;0.63;;;11.10;99.90;;;;;;5067914;28;20477;-34
2022/12/31 02:18:59;;;;;;;1.10;0.70;;;11.10;99.90;;;;;;5059420;28;20020;-36
2022/12/31 02:21:27;;;;;;;0.70;0.70;;;11.10;99.90;;;;;;5052694;28;20084;-36
2022/12/31 02:24:11;;;;;;;;;;;11.10;99.90;;;;;;5052606;28;20736;-34
2022/12/31 02:26:58;;;;;;;1.08;0.98;;;11.10;99.90;;;;;;5056265;28;19923;-36
2022/12/31 02:30:02;;;;;;;0.80;0.80;;;11.20;99.90;;;;;;5057737;28;20063;-35
2022/12/31 02:32:41;;;;;;;2.10;0.70;;;11.20;99.90;;;;;;5072578;28;20198;-34
2022/12/31 02:35:12;;;;;;;0.70;0.70;;;11.10;99.90;;;;;;5072438;28;20035;-37
2022/12/31 02:37:42;;;;;;;0.45;0.45;;;11.10;99.90;;;;;;5077133;28;20113;-36
2022/12/31 02:40:13;;;;;;;0.80;0.80;;;11.10;99.90;;;;;;5077019;28;20024;-34
2022/12/31 02:42:39;;;;;;;1.15;0.80;;;11.10;99.90;;;;;;5079849;28;20481;-37
2022/12/31 02:45:06;;;;;;;1.50;0.88;;;11.10;99.90;;;;;;5071346;28;20032;-38
2022/12/31 02:48:07;;;;;;;0.80;0.80;;;11.10;99.90;;;;;;5076470;28;20028;-38
2022/12/31 02:50:36;;;;;;;0.65;0.65;;;11.00;99.90;;;;;;5059112;28;20047;-36
2022/12/31 02:53:35;;;;;;;2.85;0.90;;;11.00;99.90;;;;;;5077395;28;20029;-34
2022/12/31 02:56:27;;;;;;;0.60;0.60;;;10.90;99.90;;;;;;5069916;28;20094;-38
2022/12/31 03:04:33;;;;;;;0.60;0.60;;;10.80;99.90;;;;;;5064533;28;20078;-38
2022/12/31 03:07:05;;;;;;;1.25;0.80;;;10.70;99.90;;;;;;5065219;28;20506;-34
2022/12/31 03:09:31;;;;;;;0.90;0.90;;;10.70;99.90;;;;;;5068596;28;20028;-37
2022/12/31 03:14:43;;;;;;;1.55;0.80;;;10.60;99.90;;;;;;5076363;28;20146;-38
2022/12/31 03:17:09;;;;;;;3.20;0.88;;;10.60;99.90;;;;;;5068673;28;20502;-35
2022/12/31 03:22:28;;;;;;;0.98;0.73;;;10.60;99.90;;;;;;5077398;28;20081;-38
2022/12/31 03:28:22;;;;;;;0.77;0.73;;;10.50;99.90;;;;;;4997484;28;20033;-37
2022/12/31 03:30:54;;;;;;;0.50;0.50;;;10.50;99.90;;;;;;5038761;28;20131;-34
2022/12/31 03:33:21;;;;;;;0.80;0.80;;;10.50;99.90;;;;;;5075647;28;20293;-37
2022/12/31 03:35:48;;;;;;;0.70;0.70;;;10.50;99.90;;;;;;5072172;28;20040;-38
2022/12/31 03:38:15;;;;;;;0.60;0.60;;;10.50;99.90;;;;;;5071505;28;20285;-36
2022/12/31 03:40:43;;;;;;;0.80;0.80;;;10.60;99.90;;;;;;5068580;28;20587;-35
2022/12/31 03:43:10;;;;;;;0.60;0.60;;;10.60;99.90;;;;;;5079543;28;20029;-38
2022/12/31 03:45:36;;;;;;;0.52;0.52;;;10.70;99.90;;;;;;5069572;28;20024;-36
2022/12/31 03:48:03;;;;;;;0.70;0.70;;;10.70;99.90;;;;;;5063380;28;20565;-36
2022/12/31 03:50:29;;;;;;;1.43;0.70;;;10.80;99.90;;;;;;5060275;28;20051;-37
2022/12/31 03:52:56;;;;;;;0.68;0.68;;;10.80;99.90;;;;;;5075367;28;20469;-37
2022/12/31 03:55:22;;;;;;;0.70;0.70;;;10.80;99.90;;;;;;5068130;28;20528;-37
2022/12/31 03:57:48;;;;;;;1.77;0.70;;;10.80;99.90;;;;;;5075304;28;20126;-37
2022/12/31 04:00:17;;;;;;;0.52;0.52;;;10.90;99.90;;;;;;5066672;28;20414;-38
2022/12/31 04:02:44;;;;;;;1.00;0.77;;;10.90;99.90;;;;;;5076992;28;20033;-36
2022/12/31 04:05:11;;;;;;;0.80;0.80;;;11.00;99.90;;;;;;5076987;28;20043;-35
2022/12/31 04:07:38;;;;;;;0.77;0.77;;;11.00;99.90;;;;;;5079167;28;20032;-38
2022/12/31 04:10:05;;;;;;;1.08;0.75;;;11.20;99.90;;;;;;5083742;28;20035;-37
2022/12/31 04:12:31;;;;;;;0.50;0.50;;;11.20;99.90;;;;;;5076301;28;20044;-38
2022/12/31 04:14:57;;;;;;;0.65;0.65;;;11.30;99.90;;;;;;5088670;28;20036;-34
2022/12/31 04:17:26;;;;;;;0.77;0.77;;;11.30;99.90;;;;;;5077217;28;20039;-37
2022/12/31 04:19:52;;;;;;;1.38;0.90;;;11.40;99.90;;;;;;5078117;28;20031;-37
2022/12/31 04:22:21;;;;;;;0.75;0.75;;;11.40;99.90;;;;;;5082108;28;20024;-37
2022/12/31 04:24:50;;;;;;;1.40;0.80;;;11.40;99.90;;;;;;5081023;28;20032;-35
2022/12/31 04:27:16;;;;;;;1.65;0.57;;;11.40;99.90;;;;;;5083446;28;20085;-35
2022/12/31 04:29:42;;;;;;;1.33;0.70;;;11.50;99.90;;;;;;5080063;28;20029;-36
2022/12/31 04:32:09;;;;;;;1.38;0.65;;;11.40;99.90;;;;;;5083654;28;20032;-34
2022/12/31 04:34:34;;;;;;;0.73;0.73;;;11.40;99.90;;;;;;5078928;28;20028;-37
2022/12/31 04:37:01;;;;;;;0.77;0.70;;;11.40;99.90;;;;;;5073279;28;20461;-38
2022/12/31 04:39:27;;;;;;;0.60;0.60;;;11.40;99.90;;;;;;5068713;28;20024;-37
2022/12/31 04:41:53;;;;;;;0.40;0.40;;;11.50;99.90;;;;;;5074092;28;20036;-33
2022/12/31 04:44:19;;;;;;;0.70;0.70;;;11.50;99.90;;;;;;5078733;28;20073;-35
2022/12/31 04:46:45;;;;;;;0.50;0.50;;;11.50;99.90;;;;;;5076109;28;20036;-37
2022/12/31 04:49:11;;;;;;;0.50;0.50;;;11.50;99.90;;;;;;5069709;28;20501;-35
2022/12/31 04:51:37;;;;;;;1.38;0.50;;;11.60;99.90;;;;;;5069708;28;20035;-36
2022/12/31 04:54:03;;;;;;;0.68;0.40;;;11.60;99.90;;;;;;5077612;28;20036;-37
2022/12/31 04:56:29;;;;;;;1.45;0.50;;;11.60;99.90;;;;;;5064757;28;20501;-34
2022/12/31 04:58:55;;;;;;;0.50;0.50;;;11.70;99.90;;;;;;5074538;28;20050;-33
2022/12/31 05:01:21;;;;;;;0.60;0.60;;;11.70;99.90;;;;;;5068944;28;20028;-34
2022/12/31 05:03:47;;;;;;;0.60;0.60;;;11.70;99.90;;;;;;5082811;28;20032;-37
2022/12/31 05:06:16;;;;;;;0.50;0.50;;;11.80;99.90;;;;;;5069725;28;20016;-35
2022/12/31 05:08:43;;;;;;;0.82;0.82;;;11.80;99.90;;;;;;5069059;28;20030;-38
2022/12/31 05:11:10;;;;;;;0.32;0.32;;;11.80;99.90;;;;;;5072989;28;20029;-34
2022/12/31 05:13:39;;;;;;;0.47;0.45;;;11.90;99.90;;;;;;5072720;28;20093;-36
2022/12/31 05:16:06;;;;;;;0.50;0.50;;;11.90;99.90;;;;;;5065513;28;20041;-35
2022/12/31 05:18:32;;;;;;;0.60;0.60;;;11.80;99.90;;;;;;5073513;28;20032;-37
2022/12/31 05:20:58;;;;;;;1.00;0.60;;;11.90;99.90;;;;;;5075522;28;20024;-37
2022/12/31 05:23:25;;;;;;;0.45;0.45;;;11.90;99.90;;;;;;5062695;28;20029;-35
2022/12/31 05:25:51;;;;;;;0.50;0.50;;;11.90;99.90;;;;;;5065490;28;20036;-34
2022/12/31 05:28:17;;;;;;;0.70;0.70;;;11.90;99.90;;;;;;5070734;28;20037;-35
2022/12/31 05:30:44;;;;;;;0.52;0.40;;;11.90;99.90;;;;;;5076301;28;20383;-37
2022/12/31 05:33:10;;;;;;;0.40;0.40;;;12.00;99.90;;;;;;5071009;28;20032;-35
2022/12/31 05:35:35;;;;;;;0.50;0.50;;;11.90;99.90;;;;;;5062578;28;20064;-35
2022/12/31 05:38:02;;;;;;;0.50;0.50;;;11.90;99.90;;;;;;5069420;28;20374;-36
2022/12/31 05:40:28;;;;;;;0.40;0.40;;;11.80;99.90;;;;;;5076871;28;20020;-36
2022/12/31 05:42:54;;;;;;;0.70;0.70;;;11.80;99.90;;;;;;5071910;28;20044;-35
2022/12/31 05:45:20;;;;;;;1.13;0.50;;;11.80;99.90;;;;;;5074052;28;20115;-37
2022/12/31 05:47:46;;;;;;;0.43;0.40;;;11.70;99.90;;;;;;5081641;28;20043;-36
2022/12/31 05:50:16;;;;;;;0.57;0.57;;;11.80;99.90;;;;;;5074785;28;20032;-37
2022/12/31 05:52:44;;;;;;;0.47;0.47;;;11.80;99.90;;;;;;5078672;28;20060;-36
2022/12/31 05:55:11;;;;;;;0.75;0.75;;;11.70;99.90;;;;;;5084403;28;20092;-35
2022/12/31 05:57:37;;;;;;;0.45;0.45;;;11.70;99.90;;;;;;5061278;28;20564;-35
2022/12/31 06:00:05;;;;;;;0.95;0.80;;;11.70;99.90;;;;;;5058171;28;20024;-38
2022/12/31 06:02:31;;;;;;;0.60;0.60;;;11.70;99.90;;;;;;5071492;28;20086;-35
2022/12/31 06:04:57;;;;;;;0.50;0.50;;;11.70;99.90;;;;;;5072770;28;20424;-38
2022/12/31 06:07:23;;;;;;;0.60;0.60;;;11.70;99.90;;;;;;5074002;28;20025;-35
2022/12/31 06:09:49;;;;;;;0.60;0.60;;;11.70;99.90;;;;;;5075666;28;20043;-36
2022/12/31 06:12:15;;;;;;;0.47;0.47;;;11.70;99.90;;;;;;5081057;28;20036;-36
2022/12/31 06:14:41;;;;;;;0.95;0.60;;;11.70;99.90;;;;;;5086651;28;20052;-36
2022/12/31 06:17:06;;;;;;;0.50;0.50;;;11.80;99.90;;;;;;5071921;28;20041;-34
2022/12/31 06:19:32;;;;;;;0.43;0.43;;;11.90;99.90;;;;;;5073124;28;20032;-35
2022/12/31 06:21:58;;;;;;;0.50;0.50;;;11.80;99.90;;;;;;5072364;28;20024;-36
2022/12/31 06:24:23;;;;;;;0.55;0.55;;;11.80;99.90;;;;;;5071025;28;20028;-32
2022/12/31 06:26:49;;;;;;;0.55;0.55;;;11.70;99.90;;;;;;5073562;28;20028;-37
2022/12/31 06:29:15;;;;;;;0.70;0.70;;;11.70;99.90;;;;;;5076995;28;20039;-35
2022/12/31 06:31:41;;;;;;;0.60;0.60;;;11.70;99.90;;;;;;5079901;28;20043;-46
2022/12/31 06:34:06;;;;;;;0.50;0.50;;;11.70;99.90;;;;;;5068244;28;20114;-34
2022/12/31 06:36:32;;;;;;;0.55;0.55;;;11.70;99.90;;;;;;5074329;28;20052;-34
2022/12/31 06:38:58;;;;;;;0.47;0.47;;;11.70;99.90;;;;;;5074317;28;20043;-36
2022/12/31 06:41:23;;;;;;;0.82;0.70;;;11.60;99.90;;;;;;5080649;28;20035;-35
2022/12/31 06:43:49;;;;;;;0.60;0.60;;;11.60;99.90;;;;;;5082427;28;20111;-35
2022/12/31 06:46:17;;;;;;;0.50;0.50;;;11.70;99.90;;;;;;5072978;28;20020;-37
2022/12/31 06:48:44;;;;;;;0.70;0.70;;;11.70;99.90;;;;;;5071416;28;20493;-35
2022/12/31 06:51:13;;;;;;;0.30;0.30;;;11.70;99.90;;;;;;5073449;28;20054;-33
2022/12/31 06:53:39;;;;;;;0.40;0.40;;;11.80;99.90;;;;;;5067362;28;20385;-37
2022/12/31 06:56:13;;;;;;;0.50;0.50;;;11.80;99.90;;;;;;5065083;28;20067;-36
2022/12/31 06:58:39;;;;;;;0.50;0.50;;;11.90;99.90;;;;;;5066707;28;20482;-37
2022/12/31 07:01:43;;;;;;;0.40;0.40;;;11.90;99.90;;;;;;5064424;28;20033;-34
2022/12/31 07:04:45;;;;;;;0.52;0.52;;;12.00;99.90;;;;;;5066568;28;20116;-37
2022/12/31 07:07:11;;;;;;;0.43;0.40;;;12.10;99.90;;;;;;5070387;28;20031;-35
2022/12/31 07:09:44;;;;;;;0.60;0.60;;;12.20;99.90;;;;;;5075020;28;20029;-37
2022/12/31 07:12:27;;;;;;;0.88;0.52;;;12.20;99.90;;;;;;5073638;28;20025;-37
2022/12/31 07:15:30;;;;;;;0.60;0.60;;;12.20;99.90;;;;;;5073511;28;20417;-37
2022/12/31 07:18:30;;;;;;;1.70;0.70;;;12.30;99.90;;;;;;5073041;28;20131;-34
2022/12/31 07:20:56;;;;;;;0.50;0.50;;;12.40;99.90;;;;;;5067603;28;20038;-38
2022/12/31 07:23:22;;;;;;;0.50;0.50;;;12.40;99.90;;;;;;5080305;28;20028;-36
2022/12/31 07:26:02;;;;;;;0.40;0.40;;;12.40;99.90;;;;;;5069803;28;20347;-37
2022/12/31 07:28:47;;;;;;;0.50;0.50;;;12.50;99.90;;;;;;5077125;28;20028;-38
2022/12/31 07:31:33;;;;;;;0.50;0.50;;;12.50;99.90;;;;;;5062567;28;20135;-37
2022/12/31 07:34:09;;;;;;;0.40;0.40;;;12.50;99.90;;;;;;5067263;28;20051;-38
2022/12/31 07:37:00;;;;;;;0.75;0.70;;;12.60;99.90;;;;;;5066769;28;20056;-38
2022/12/31 07:39:45;;;;;;;0.50;0.50;;;12.50;99.90;;;;;;5079020;28;20029;-36
2022/12/31 07:42:19;;;;;;;1.17;0.50;;;12.50;99.90;;;;;;5074513;28;20050;-37
2022/12/31 07:45:01;;;;;;;0.63;0.63;;;12.40;99.90;;;;;;5075343;28;20032;-36
2022/12/31 07:47:27;;;;;;;0.50;0.50;;;12.40;99.90;;;;;;5061913;28;20028;-35
2022/12/31 07:49:54;;;;;;;0.45;0.45;;;12.40;99.90;;;;;;5067271;28;20033;-39
2022/12/31 07:52:21;;;;;;;0.45;0.45;;;12.40;99.90;;;;;;5065474;28;20031;-37
2022/12/31 07:54:47;;;;;;;0.47;0.47;;;12.40;99.90;;;;;;5066530;28;20070;-35
2022/12/31 07:57:15;;;;;;;0.52;0.52;;;12.40;99.90;;;;;;5062465;28;20038;-37
2022/12/31 07:59:53;;;;;;;;;;;12.40;99.90;;;;;;5064041;28;20194;-33
2022/12/31 08:02:22;;;;;;;;;;;12.40;99.90;;;;;;5061961;28;20326;-35
2022/12/31 08:05:15;;;;;;;0.50;0.50;;;12.40;99.90;;;;;;5071109;28;19943;-35
2022/12/31 08:08:04;;;;;;;1.20;0.60;;;12.30;99.90;;;;;;5046516;28;20036;-36
2022/12/31 08:10:53;;;;;;;0.57;0.57;;;12.30;99.90;;;;;;5069919;28;20676;-37
2022/12/31 08:13:20;;;;;;;0.60;0.60;;;12.30;99.90;;;;;;5057032;28;20040;-35
2022/12/31 08:15:46;;;;;;;0.60;0.60;;;12.20;99.90;;;;;;5079688;28;21998;-34
2022/12/31 08:18:11;;;;;;;0.63;0.47;;;12.40;99.90;;;;;;5066084;28;20044;-36
2022/12/31 08:21:15;;;;;;;0.50;0.50;;;12.40;99.90;;;;;;5063880;28;20024;-36
2022/12/31 08:24:16;;;;;;;0.60;0.60;;;12.40;99.90;;;;;;5030031;28;20037;-35
2022/12/31 08:26:46;;;;;;;1.13;0.77;;;12.40;99.90;;;;;;5052390;28;20031;-34
2022/12/31 08:29:24;;;;;;;1.00;1.00;;;12.50;99.90;;;;;;5068994;28;21987;-37
2022/12/31 08:32:15;;;;;;;0.60;0.60;;;12.40;99.90;;;;;;5064512;28;20032;-33
2022/12/31 08:35:02;;;;;;;0.63;0.63;;;12.40;99.90;;;;;;5078773;28;20028;-34
2022/12/31 08:37:58;;;;;;;0.70;0.70;;;12.40;99.90;;;;;;5067941;28;20033;-36
2022/12/31 08:40:30;;;;;;;0.65;0.65;;;12.40;99.90;;;;;;5061190;28;20125;-39
2022/12/31 08:42:58;;;;;;;0.60;0.60;;;12.40;99.90;;;;;;5078115;28;20024;-39
2022/12/31 08:45:29;;;;;;;0.40;0.40;;;12.40;99.90;;;;;;5074529;28;20521;-39
2022/12/31 08:48:12;;;;;;;0.47;0.47;;;12.40;99.90;;;;;;5071086;28;20077;-36
2022/12/31 08:50:38;;;;;;;0.68;0.68;;;12.30;99.90;;;;;;5072070;28;20561;-36
2022/12/31 08:53:04;;;;;;;0.55;0.55;;;12.30;99.90;;;;;;5072079;28;20031;-39
2022/12/31 08:55:30;;;;;;;1.08;0.70;;;12.30;99.90;;;;;;5073867;28;20032;-36
2022/12/31 08:58:34;;;;;;;0.60;0.60;;;12.30;99.90;;;;;;5065087;28;20040;-37
2022/12/31 09:01:00;;;;;;;0.70;0.70;;;12.30;99.90;;;;;;5021162;28;20028;-36
2022/12/31 09:03:37;;;;;;;0.70;0.70;;;12.30;99.90;;;;;;5052863;28;20029;-36
2022/12/31 09:06:31;;;;;;;0.60;0.60;;;12.40;99.90;;;;;;5052904;28;20029;-32
2022/12/31 09:09:30;;;;;;;1.98;0.57;;;12.40;99.90;;;;;;5060715;28;20093;-37
2022/12/31 09:12:04;;;;;;;1.20;1.00;;;12.50;99.90;;;;;;5063766;28;20032;-36
2022/12/31 09:14:51;;;;;;;0.80;0.80;;;12.50;99.90;;;;;;5069240;28;20044;-36
2022/12/31 09:17:23;;;;;;;0.80;0.77;;;12.50;99.90;;;;;;5071415;28;20039;-38
2022/12/31 09:19:48;;;;;;;0.80;0.80;;;12.60;99.90;;;;;;5069442;28;20032;-38
2022/12/31 09:22:14;;;;;;;1.50;1.10;;;12.60;99.90;;;;;;5072347;28;20042;-37
2022/12/31 09:24:41;;;;;;;0.80;0.80;;;12.60;99.90;;;;;;5069365;28;20500;-35
2022/12/31 09:27:32;;;;;;;1.15;0.90;;;12.70;99.90;;;;;;5067030;28;21016;-37
2022/12/31 09:30:06;;;;;;;0.95;0.80;;;12.70;99.90;;;;;;5068170;28;20021;-33
2022/12/31 09:32:53;;;;;;;1.10;1.10;;;12.70;99.90;;;;;;5072532;28;20043;-38
2022/12/31 09:35:44;;;;;;;0.82;0.82;;;12.70;99.90;;;;;;5064567;28;20131;-35
2022/12/31 09:38:28;;;;;;;0.70;0.70;;;12.70;99.90;;;;;;5064012;28;20581;-34
2022/12/31 09:41:02;;;;;;;1.15;1.05;;;12.70;99.90;;;;;;5064209;28;20032;-37
2022/12/31 09:43:47;;;;;;;1.15;0.90;;;12.80;99.90;;;;;;5065949;28;20063;-37
2022/12/31 09:46:40;;;;;;;1.10;0.95;;;12.80;99.90;;;;;;5067253;28;20040;-34
2022/12/31 09:49:30;;;;;;;0.60;0.60;;;12.90;99.90;;;;;;5066359;28;20024;-35
2022/12/31 09:52:04;;;;;;;0.60;0.60;;;13.00;99.90;;;;;;5061688;28;20502;-38
2022/12/31 09:54:38;;;;;;;0.63;0.63;;;13.00;99.90;;;;;;5067540;28;20490;-38
2022/12/31 09:57:17;;;;;;;0.63;0.63;;;13.10;99.90;;;;;;5074060;28;20472;-37
2022/12/31 09:59:49;;;;;;;0.60;0.60;;;13.20;99.90;;;;;;5069107;28;20116;-35
2022/12/31 10:02:27;;;;;;;1.00;0.60;;;13.30;99.90;;;;;;5071005;28;20028;-38
2022/12/31 10:05:08;;;;;;;0.60;0.60;;;13.30;99.90;;;;;;5076355;28;20025;-38
2022/12/31 10:07:42;;;;;;;0.60;0.60;;;13.30;99.90;;;;;;5078970;28;20032;-38
2022/12/31 10:10:36;;;;;;;0.60;0.60;;;13.30;99.90;;;;;;5078458;28;20036;-38
2022/12/31 10:13:04;;;;;;;0.68;0.50;;;13.40;99.90;;;;;;5079508;28;20036;-37
2022/12/31 10:15:40;;;;;;;0.73;0.60;;;13.40;99.90;;;;;;5074674;28;20040;-32
2022/12/31 10:18:37;;;;;;;0.75;0.75;;;13.40;99.90;;;;;;5069221;28;20481;-38
2022/12/31 10:21:21;;;;;;;0.60;0.60;;;13.40;99.90;;;;;;5067598;28;20037;-38
2022/12/31 10:24:27;;;;;;;0.40;0.40;;;13.50;99.90;;;;;;5065669;28;20107;-37
2022/12/31 10:27:05;;;;;;;1.17;0.60;;;13.40;99.90;;;;;;5063993;28;20028;-38
2022/12/31 10:29:39;;;;;;;0.60;0.60;;;13.50;99.90;;;;;;5065562;28;20072;-35
2022/12/31 10:32:25;;;;;;;0.60;0.60;;;13.50;99.90;;;;;;5070243;28;20031;-37
2022/12/31 10:35:28;;;;;;;0.70;0.70;;;13.50;99.90;;;;;;5071655;28;20054;-38
2022/12/31 10:38:18;;;;;;;0.90;0.90;;;13.50;99.90;;;;;;5067734;28;20085;-38
2022/12/31 10:41:14;;;;;;;0.60;0.60;;;13.50;99.90;;;;;;5069929;28;20039;-36
2022/12/31 10:44:12;;;;;;;1.73;0.80;;;13.60;99.90;;;;;;5065691;28;20497;-38
2022/12/31 10:46:54;;;;;;;0.68;0.65;;;13.60;99.90;;;;;;5070882;28;20484;-37
2022/12/31 10:49:50;;;;;;;1.83;1.10;;;13.60;99.90;;;;;;5066030;28;20036;-37
2022/12/31 10:52:54;;;;;;;0.82;0.82;;;13.70;99.90;;;;;;5077476;28;20028;-37
2022/12/31 10:55:23;;;;;;;0.93;0.85;;;13.70;99.90;;;;;;5015860;28;20378;-39
2022/12/31 10:58:10;;;;;;;0.85;0.75;;;13.70;99.90;;;;;;5013929;28;20037;-39
2022/12/31 11:00:46;;;;;;;1.10;0.95;;;13.80;99.90;;;;;;5048052;28;20047;-37
2022/12/31 11:03:37;;;;;;;1.00;1.00;;;13.90;99.90;;;;;;5066477;28;20017;-37
2022/12/31 11:06:28;;;;;;;1.35;1.10;;;14.00;99.90;;;;;;5069857;28;20099;-38
2022/12/31 11:09:02;;;;;;;1.60;1.10;;;14.10;99.90;;;;;;5076713;28;20509;-39
2022/12/31 11:12:05;;;;;;;1.45;1.10;;;14.10;99.90;;;;;;5068820;28;20032;-38
2022/12/31 11:15:06;;;;;;;0.98;0.85;;;14.10;99.90;;;;;;5073302;28;20036;-38
2022/12/31 11:17:53;;;;;;;0.70;0.70;;;14.20;99.90;;;;;;5055924;28;20052;-35
2022/12/31 11:20:39;;;;;;;1.42;1.15;;;14.20;99.90;;;;;;5075120;28;20385;-37
2022/12/31 11:23:34;;;;;;;1.00;0.90;;;14.20;99.90;;;;;;5074731;28;20028;-37
2022/12/31 11:26:25;;;;;;;1.08;1.02;;;14.20;99.90;;;;;;5071342;28;20020;-37
2022/12/31 11:29:25;;;;;;;1.00;0.90;;;14.30;99.90;;;;;;5072547;28;20475;-37
2022/12/31 11:32:00;;;;;;;1.20;0.90;;;14.50;99.90;;;;;;5061444;28;20039;-36
2022/12/31 11:34:46;;;;;;;0.98;0.80;;;14.90;99.90;;;;;;5069888;28;20985;-37
2022/12/31 11:37:24;;;;;;;0.50;0.50;;;15.30;99.90;;;;;;5076529;28;20114;-35
2022/12/31 11:40:20;;;;;;;0.70;0.70;;;15.30;97.80;;;;;;5064431;28;20023;-37
2022/12/31 11:43:09;;;;;;;0.40;0.40;;;15.20;99.60;;;;;;5077563;28;20552;-38
2022/12/31 11:45:54;;;;;;;2.05;0.60;;;15.30;97.50;;;;;;5073148;28;20031;-35
2022/12/31 11:48:53;;;;;;;0.20;0.20;;;15.30;97.30;;;;;;5075705;28;20145;-36
2022/12/31 11:51:37;;;;;;;0.55;0.55;;;15.40;95.10;;;;;;5063388;28;20035;-37
2022/12/31 11:54:33;;;;;;;0.50;0.50;;;15.30;98.80;;;;;;5068740;28;20032;-38
2022/12/31 11:57:18;;;;;;;0.55;0.55;;;15.50;95.20;;;;;;5073632;28;20051;-37
2022/12/31 11:59:45;;;;;;;0.55;0.55;;;15.40;96.20;;;;;;5065799;28;20029;-37
2022/12/31 12:02:25;;;;;;;0.60;0.57;;;15.50;98.20;;;;;;5065671;28;20041;-36
2022/12/31 12:04:53;;;;;;;0.52;0.52;;;15.60;96.70;;;;;;5070124;28;20630;-37
2022/12/31 12:07:20;;;;;;;0.68;0.68;;;15.60;97.30;;;;;;5067931;28;20462;-38
2022/12/31 12:09:46;;;;;;;0.60;0.60;;;15.70;99.00;;;;;;5074374;28;20032;-37
2022/12/31 12:12:12;;;;;;;0.47;0.47;;;15.80;98.30;;;;;;5070471;28;20020;-37
2022/12/31 12:14:41;;;;;;;0.60;0.60;;;15.90;96.50;;;;;;5070221;28;20098;-35
2022/12/31 12:17:16;;;;;;;0.57;0.57;;;15.90;98.20;;;;;;5075110;28;20027;-34
2022/12/31 12:19:45;;;;;;;2.42;0.80;;;15.80;97.60;;;;;;5073166;28;20097;-36
2022/12/31 12:22:17;;;;;;;0.70;0.70;;;15.80;98.20;;;;;;5067227;28;20094;-34
2022/12/31 12:24:56;;;;;;;0.50;0.50;;;15.80;99.40;;;;;;5078123;28;20031;-37
2022/12/31 12:27:23;;;;;;;;;;;15.90;96.50;;;;;;5079262;28;20500;-35
2022/12/31 12:29:48;;;;;;;1.10;0.70;;;15.90;97.10;;;;;;5067753;28;20015;-35
2022/12/31 12:32:17;;;;;;;0.85;0.85;;;15.90;97.60;;;;;;5078811;28;20111;-37
2022/12/31 12:34:43;;;;;;;0.70;0.70;;;16.00;98.50;;;;;;5074243;28;20122;-36
2022/12/31 12:37:23;;;;;;;0.40;0.40;;;16.00;98.50;;;;;;5073313;28;20490;-35
2022/12/31 12:40:05;;;;;;;0.70;0.70;;;16.00;96.50;;;;;;5066259;28;20032;-36
2022/12/31 12:42:31;;;;;;;0.60;0.60;;;16.00;98.40;;;;;;5071656;28;20028;-38
2022/12/31 12:45:09;;;;;;;0.77;0.63;;;16.00;98.50;;;;;;5074241;28;20374;-37
2022/12/31 12:47:35;;;;;;;1.17;0.45;;;16.00;97.40;;;;;;5071893;28;20493;-36
2022/12/31 12:50:03;;;;;;;0.63;0.63;;;16.10;99.20;;;;;;5085017;28;20039;-35
2022/12/31 12:52:47;;;;;;;0.60;0.60;;;16.10;97.00;;;;;;5071694;28;20112;-37
2022/12/31 12:55:37;;;;;;;0.70;0.70;;;16.20;96.50;;;;;;5068129;28;20274;-38
2022/12/31 12:58:13;;;;;;;0.57;0.55;;;16.10;97.80;;;;;;5077499;28;20024;-38
2022/12/31 13:01:18;;;;;;;0.68;0.68;;;16.00;99.00;;;;;;5077547;28;20127;-38
2022/12/31 13:04:07;;;;;;;0.60;0.60;;;16.10;99.90;;;;;;5078919;28;20393;-37
2022/12/31 13:07:12;;;;;;;0.57;0.47;;;16.10;98.60;;;;;;5082979;28;20031;-38
2022/12/31 13:09:59;;;;;;;1.30;0.98;;;16.10;99.90;;;;;;5068055;28;20024;-35
2022/12/31 13:12:53;;;;;;;0.57;0.57;;;16.10;99.90;;;;;;5074603;28;20028;-37
2022/12/31 13:15:38;;;;;;;0.60;0.60;;;16.10;99.90;;;;;;5077051;28;20486;-37
2022/12/31 13:18:18;;;;;;;2.13;0.77;;;16.10;99.60;;;;;;5079504;28;20478;-38
2022/12/31 13:20:54;;;;;;;1.13;0.63;;;16.00;99.70;;;;;;5073906;28;20405;-36
2022/12/31 13:23:33;;;;;;;0.63;0.63;;;16.00;99.90;;;;;;5077443;28;20032;-37
2022/12/31 13:26:09;;;;;;;0.60;0.60;;;16.00;99.90;;;;;;5076903;28;20024;-38
2022/12/31 13:28:39;;;;;;;0.77;0.70;;;16.00;98.90;;;;;;5068122;28;20115;-36
2022/12/31 13:31:13;;;;;;;1.13;0.60;;;15.90;99.90;;;;;;5065570;28;20032;-35
2022/12/31 13:33:43;;;;;;;0.70;0.70;;;16.00;99.90;;;;;;5067228;28;20036;-38
2022/12/31 13:36:14;;;;;;;0.57;0.57;;;15.90;98.70;;;;;;5066419;28;20032;-35
2022/12/31 13:38:43;;;;;;;1.08;0.70;;;15.90;99.00;;;;;;5071734;28;20032;-38
2022/12/31 13:41:39;;;;;;;1.27;0.77;;;15.90;98.90;;;;;;5065827;28;20452;-36
2022/12/31 13:44:13;;;;;;;1.05;0.95;;;15.90;99.90;;;;;;5073159;28;20046;-37